Time;durP1;ratioP1;P1;durP2;ratioP2;P2;SDS_P1;SDS_P2;PMS_P1;PMS_P2;Temp;Humidity;BMP_temperature;BMP_pressure;BME280_temperature;BME280_humidity;BME280_pressure;Samples;Min_cycle;Max_cycle;Signal;HPM_P1;HPM_P2
2023/09/18 00:01:50;;;;;;;17.58;16.20;;;;;;;19.51;66.79;100199.75;4995748;28;96812;-92
2023/09/18 00:04:16;;;;;;;17.55;16.35;;;;;;;19.53;66.92;100201.34;4994133;28;100211;-93
2023/09/18 00:06:42;;;;;;;18.33;16.85;;;;;;;19.47;66.89;100190.31;5004245;28;99100;-96
2023/09/18 00:09:11;;;;;;;15.98;14.75;;;;;;;19.55;66.85;100195.94;4994868;28;96648;-96
2023/09/18 00:11:38;;;;;;;18.23;16.65;;;;;;;19.62;66.61;100199.84;4995384;28;96683;-93
2023/09/18 00:14:04;;;;;;;17.70;16.40;;;;;;;19.56;66.72;100186.97;4983180;28;99721;-96
2023/09/18 00:16:30;;;;;;;17.33;16.13;;;;;;;19.62;66.49;100182.03;4999251;28;100547;-91
2023/09/18 00:18:55;;;;;;;18.30;17.00;;;;;;;19.64;66.44;100176.63;4996516;28;96673;-90
2023/09/18 00:21:21;;;;;;;16.77;15.57;;;;;;;19.54;66.65;100173.75;5007536;28;96656;-82
2023/09/18 00:23:46;;;;;;;16.33;15.00;;;;;;;19.52;66.80;100189.03;5011726;28;97149;-96
2023/09/18 00:26:12;;;;;;;17.60;16.15;;;;;;;19.41;66.88;100172.97;4976010;28;100573;-96
2023/09/18 00:28:41;;;;;;;16.92;15.45;;;;;;;19.36;67.03;100178.63;4992039;28;96792;-93
2023/09/18 00:31:06;;;;;;;16.48;15.27;;;;;;;19.36;67.00;100170.66;4973647;28;96710;-94
2023/09/18 00:33:32;;;;;;;18.33;16.65;;;;;;;19.29;67.66;100171.22;5004859;28;100642;-94
2023/09/18 00:35:58;;;;;;;16.88;15.68;;;;;;;19.20;67.70;100170.91;4995832;28;96806;-96
2023/09/18 00:38:23;;;;;;;18.10;16.80;;;;;;;19.26;67.59;100164.31;5001925;28;97071;-96
2023/09/18 00:40:49;;;;;;;18.20;16.45;;;;;;;19.12;68.14;100161.78;4997937;28;96536;-96
2023/09/18 00:43:15;;;;;;;18.15;16.50;;;;;;;19.09;68.40;100173.50;4990795;28;99003;-92
2023/09/18 00:45:43;;;;;;;17.35;16.00;;;;;;;19.08;68.12;100163.84;4995277;28;97858;-90
2023/09/18 00:48:09;;;;;;;18.45;17.08;;;;;;;19.11;68.37;100174.25;4962363;28;96713;-96
2023/09/18 00:50:35;;;;;;;18.13;16.88;;;;;;;19.16;68.31;100173.91;4991576;28;96700;-91
2023/09/18 00:53:01;;;;;;;19.50;17.73;;;;;;;19.09;68.16;100168.19;5009629;28;101224;-91
2023/09/18 00:55:28;;;;;;;17.15;15.95;;;;;;;18.93;68.73;100163.09;5010122;28;99133;-93
2023/09/18 00:57:55;;;;;;;19.20;17.55;;;;;;;18.94;68.97;100166.63;4974184;28;96706;-91
2023/09/18 01:00:22;;;;;;;19.30;17.27;;;;;;;18.91;68.89;100162.38;4974092;28;96930;-92
2023/09/18 01:02:48;;;;;;;19.33;17.58;;;;;;;18.91;69.09;100174.81;4972718;28;98993;-96
2023/09/18 01:05:16;;;;;;;19.15;17.65;;;;;;;18.91;69.13;100173.00;4975920;28;99040;-96
2023/09/18 01:07:42;;;;;;;20.10;18.35;;;;;;;18.83;69.50;100171.84;4991323;28;96583;-94
2023/09/18 01:10:15;;;;;;;19.98;18.17;;;;;;;18.75;69.66;100173.22;4991949;28;96841;-96
2023/09/18 01:12:49;;;;;;;21.23;19.13;;;;;;;18.62;70.22;100161.75;4993281;28;100361;-91
2023/09/18 01:15:18;;;;;;;11.55;10.43;;;;;;;18.55;70.65;100166.63;5009471;28;96823;-96
2023/09/18 01:17:44;;;;;;;9.88;7.70;;;;;;;18.12;71.28;100112.94;4962912;28;96689;-78
2023/09/18 01:20:11;;;;;;;9.82;7.70;;;;;;;18.36;71.53;100157.38;4992876;28;96528;-75
2023/09/18 01:22:37;;;;;;;9.85;7.55;;;;;;;18.44;71.25;100150.59;4959258;28;101547;-79
2023/09/18 01:25:03;;;;;;;13.27;9.68;;;;;;;18.44;70.99;100137.31;4975752;28;99757;-77
2023/09/18 01:27:28;;;;;;;25.88;23.88;;;;;;;18.42;71.17;100155.16;4976373;28;96645;-79
2023/09/18 01:29:54;;;;;;;26.23;24.00;;;;;;;18.26;71.75;100139.41;4992883;28;96854;-75
2023/09/18 01:32:24;;;;;;;24.85;22.90;;;;;;;18.22;72.30;100135.25;4975621;28;100840;-75
2023/09/18 01:34:52;;;;;;;26.08;23.65;;;;;;;18.21;72.22;100138.88;4975794;28;101066;-78
2023/09/18 01:37:20;;;;;;;25.45;23.30;;;;;;;18.35;71.60;100135.25;4959150;28;96553;-77
2023/09/18 01:39:48;;;;;;;23.08;21.13;;;;;;;18.29;71.97;100135.69;4975941;28;96837;-77
2023/09/18 01:42:14;;;;;;;28.98;26.23;;;;;;;18.16;72.07;100133.03;4975826;28;97199;-78
2023/09/18 01:44:39;;;;;;;26.15;24.15;;;;;;;17.99;72.99;100126.22;4991895;28;101543;-75
2023/09/18 01:47:14;;;;;;;27.65;24.70;;;;;;;17.99;73.19;100120.91;4994117;28;96694;-77
2023/09/18 01:49:40;;;;;;;30.67;27.98;;;;;;;18.05;73.19;100128.44;4962625;28;96943;-78
2023/09/18 01:52:08;;;;;;;35.15;31.95;;;;;;;18.02;73.03;100122.50;4996396;28;98125;-78
2023/09/18 01:54:34;;;;;;;36.60;33.17;;;;;;;18.05;73.06;100124.94;4979155;28;98164;-78
2023/09/18 01:57:00;;;;;;;35.65;32.47;;;;;;;18.13;72.92;100127.09;4979292;28;97038;-77
2023/09/18 01:59:26;;;;;;;34.38;31.00;;;;;;;18.12;72.68;100125.38;4978699;28;96895;-78
2023/09/18 02:01:53;;;;;;;38.45;34.75;;;;;;;18.04;72.61;100109.97;4961492;28;101659;-79
2023/09/18 02:04:19;;;;;;;26.88;24.27;;;;;;;18.12;72.47;100120.06;4978867;28;97900;-77
2023/09/18 02:06:46;;;;;;;19.48;18.00;;;;;;;18.02;72.69;100104.75;4978715;28;96580;-78
2023/09/18 02:09:12;;;;;;;21.00;19.40;;;;;;;18.11;72.67;100121.88;4979073;28;96871;-78
2023/09/18 02:11:39;;;;;;;32.22;29.33;;;;;;;18.19;72.24;100116.88;4962045;28;101884;-77
2023/09/18 02:14:06;;;;;;;28.95;26.35;;;;;;;18.22;72.18;100114.00;4978488;28;101367;-79
2023/09/18 02:16:43;;;;;;;25.45;23.10;;;;;;;18.18;72.13;100106.34;4978868;28;96534;-78
2023/09/18 02:19:09;;;;;;;27.92;23.67;;;;;;;18.14;72.11;100108.38;4979840;28;96614;-77
2023/09/18 02:21:36;;;;;;;23.90;22.10;;;;;;;18.17;72.28;100108.16;4978079;28;100471;-78
2023/09/18 02:24:02;;;;;;;24.55;21.77;;;;;;;18.23;71.69;100106.88;4978384;28;97936;-77
2023/09/18 02:26:29;;;;;;;23.85;21.85;;;;;;;18.15;72.20;100102.13;4978121;28;96683;-77
2023/09/18 02:28:57;;;;;;;27.20;25.20;;;;;;;18.23;71.73;100117.50;4978770;28;96774;-77
2023/09/18 02:31:23;;;;;;;21.55;19.55;;;;;;;18.24;71.90;100114.75;4978029;28;101113;-75
2023/09/18 02:33:48;;;;;;;31.75;29.17;;;;;;;18.27;71.71;100114.56;4978031;28;101396;-77
2023/09/18 02:36:14;;;;;;;31.00;28.23;;;;;;;18.28;71.55;100102.13;4995182;28;96559;-77
2023/09/18 02:38:40;;;;;;;28.35;25.98;;;;;;;18.25;71.21;100103.16;4978563;28;97001;-77
2023/09/18 02:41:05;;;;;;;27.90;25.52;;;;;;;18.41;70.97;100120.69;4996040;28;97882;-77
2023/09/18 02:43:31;;;;;;;30.55;27.95;;;;;;;18.31;71.08;100107.22;4978139;28;101133;-79
2023/09/18 02:45:56;;;;;;;30.92;28.38;;;;;;;18.22;70.96;100084.78;4978298;28;96578;-77
2023/09/18 02:48:22;;;;;;;23.17;21.23;;;;;;;18.32;71.02;100107.13;4961912;28;96913;-77
2023/09/18 02:50:47;;;;;;;23.05;21.25;;;;;;;18.35;71.00;100106.03;4977630;28;98120;-75
2023/09/18 02:53:31;;;;;;;23.75;21.73;;;;;;;18.35;70.73;100102.53;4990627;28;101121;-75
2023/09/18 02:55:58;;;;;;;23.55;21.30;;;;;;;18.36;71.05;100112.22;4942179;28;96585;-77
2023/09/18 02:58:25;;;;;;;23.85;21.67;;;;;;;18.31;70.88;100107.22;4974444;28;96871;-77
2023/09/18 03:00:53;;;;;;;24.02;22.00;;;;;;;18.28;70.89;100104.78;4942139;28;101572;-78
2023/09/18 03:03:19;;;;;;;22.65;20.80;;;;;;;18.28;70.96;100097.66;4941972;28;100757;-77
2023/09/18 03:05:45;;;;;;;22.95;20.95;;;;;;;18.17;70.81;100088.72;4958355;28;97160;-77
2023/09/18 03:08:12;;;;;;;24.08;22.17;;;;;;;18.22;70.96;100095.41;4974912;28;97002;-79
2023/09/18 03:10:40;;;;;;;24.45;22.20;;;;;;;18.23;71.32;100101.56;4974279;28;101403;-77
2023/09/18 03:13:07;;;;;;;11.82;9.93;;;;;;;18.22;71.30;100105.19;4974481;28;97341;-77
2023/09/18 03:15:33;;;;;;;14.43;13.13;;;;;;;18.18;71.20;100103.69;4990476;28;96619;-77
2023/09/18 03:18:00;;;;;;;27.25;24.58;;;;;;;18.16;71.10;100090.53;4974334;28;97008;-75
2023/09/18 03:20:27;;;;;;;11.30;8.02;;;;;;;18.24;70.82;100090.00;4957809;28;101846;-77
2023/09/18 03:22:58;;;;;;;13.45;10.48;;;;;;;18.16;71.25;100090.53;4974152;28;100977;-77
2023/09/18 03:25:24;;;;;;;10.43;9.30;;;;;;;17.92;71.79;100081.56;4974303;28;96841;-75
2023/09/18 03:27:51;;;;;;;10.95;9.85;;;;;;;17.94;71.87;100090.28;4990873;28;96807;-77
2023/09/18 03:30:18;;;;;;;13.13;8.40;;;;;;;18.01;71.73;100083.63;4973874;28;100417;-77
2023/09/18 03:32:45;;;;;;;12.05;10.80;;;;;;;18.08;71.35;100084.91;4974214;28;101255;-78
2023/09/18 03:35:18;;;;;;;10.90;9.10;;;;;;;17.99;71.83;100085.53;4958031;28;96678;-78
2023/09/18 03:37:50;;;;;;;9.98;8.02;;;;;;;18.01;71.49;100068.53;4974401;28;96653;-77
2023/09/18 03:40:17;;;;;;;7.75;7.05;;;;;;;18.00;71.57;100076.59;4973331;28;101560;-78
2023/09/18 03:42:42;;;;;;;11.07;7.93;;;;;;;17.95;71.88;100057.47;4973983;28;97986;-78
2023/09/18 03:45:09;;;;;;;9.82;7.35;;;;;;;17.90;71.81;100056.97;4974017;28;96701;-77
2023/09/18 03:47:35;;;;;;;14.35;8.63;;;;;;;17.83;72.07;100059.16;4974105;28;97053;-77
2023/09/18 03:50:05;;;;;;;11.88;8.93;;;;;;;17.82;71.93;100057.47;4941118;28;100772;-75
2023/09/18 03:52:31;;;;;;;8.73;7.88;;;;;;;17.68;72.42;100039.78;4972929;28;101814;-77
2023/09/18 03:54:56;;;;;;;9.65;8.35;;;;;;;17.75;72.55;100062.31;4973733;28;96618;-78
2023/09/18 03:57:22;;;;;;;12.15;9.18;;;;;;;17.66;72.43;100044.38;4974259;28;96943;-79
2023/09/18 03:59:48;;;;;;;12.90;10.52;;;;;;;17.80;72.26;100043.44;4990073;28;100344;-77
2023/09/18 04:02:13;;;;;;;10.65;9.20;;;;;;;17.74;72.48;100049.13;4973527;28;101593;-77
2023/09/18 04:04:39;;;;;;;13.90;8.13;;;;;;;17.84;71.99;100043.13;4989739;28;96594;-75
2023/09/18 04:07:08;;;;;;;9.38;8.35;;;;;;;17.88;71.99;100055.25;4973727;28;96984;-75
2023/09/18 04:09:37;;;;;;;9.93;8.32;;;;;;;17.87;72.09;100050.91;4972584;28;101813;-77
2023/09/18 04:12:05;;;;;;;10.82;9.80;;;;;;;17.84;72.02;100037.84;4973261;28;97840;-77
2023/09/18 04:14:32;;;;;;;14.25;10.27;;;;;;;17.80;71.87;100019.53;4973969;28;96763;-78
2023/09/18 04:16:57;;;;;;;11.65;10.50;;;;;;;17.98;71.83;100052.81;4957103;28;96942;-77
2023/09/18 04:19:23;;;;;;;12.73;10.50;;;;;;;17.91;71.64;100029.44;4973522;28;98087;-78
2023/09/18 04:21:48;;;;;;;13.18;8.68;;;;;;;17.88;71.92;100049.94;4973839;28;101332;-77
2023/09/18 04:24:14;;;;;;;11.70;7.85;;;;;;;17.87;71.95;100042.94;4957165;28;96607;-77
2023/09/18 04:26:40;;;;;;;10.40;9.02;;;;;;;17.62;72.47;100021.63;4975049;28;96808;-77
2023/09/18 04:29:05;;;;;;;15.05;9.52;;;;;;;17.48;72.98;100027.03;4972765;28;101462;-76
2023/09/18 04:31:31;;;;;;;10.23;8.40;;;;;;;17.57;72.38;100019.31;4957129;28;101490;-77
2023/09/18 04:33:57;;;;;;;16.70;10.02;;;;;;;17.56;73.00;100028.19;4973523;28;96585;-76
2023/09/18 04:36:24;;;;;;;17.75;9.25;;;;;;;17.47;72.97;99996.16;4956896;28;96829;-76
2023/09/18 04:38:50;;;;;;;11.23;8.65;;;;;;;17.66;72.68;100020.50;4973173;28;101496;-76
2023/09/18 04:41:16;;;;;;;14.90;9.07;;;;;;;17.54;73.05;100026.59;4956786;28;101333;-76
2023/09/18 04:43:42;;;;;;;11.48;8.85;;;;;;;17.45;72.90;100001.53;4973590;28;96530;-75
2023/09/18 04:46:08;;;;;;;13.40;8.57;;;;;;;17.52;72.92;99997.53;4957457;28;96848;-77
2023/09/18 04:48:34;;;;;;;13.60;9.88;;;;;;;17.75;72.70;100032.28;4972946;28;101414;-77
2023/09/18 04:51:03;;;;;;;12.82;8.02;;;;;;;17.71;72.36;100006.88;4972952;28;101147;-74
2023/09/18 04:53:30;;;;;;;12.07;10.20;;;;;;;17.77;72.64;100020.59;4988473;28;96740;-77
2023/09/18 04:55:56;;;;;;;15.57;10.43;;;;;;;17.79;72.31;100012.56;4989500;28;96902;-77
2023/09/18 04:58:22;;;;;;;9.43;8.52;;;;;;;17.74;72.40;100025.25;4989283;28;101145;-80
2023/09/18 05:00:58;;;;;;;14.20;10.32;;;;;;;17.73;72.06;100005.81;4972797;28;101195;-74
2023/09/18 05:03:25;;;;;;;9.55;8.55;;;;;;;17.79;71.85;100020.50;4956689;28;96494;-74
2023/09/18 05:05:51;;;;;;;13.77;8.65;;;;;;;17.58;72.37;99990.97;4972999;28;96853;-77
2023/09/18 05:08:17;;;;;;;9.88;8.88;;;;;;;17.91;72.25;100022.31;4940254;28;101461;-77
2023/09/18 05:10:43;;;;;;;11.65;8.07;;;;;;;17.97;71.82;100021.03;4972980;28;101195;-83
2023/09/18 05:13:09;;;;;;;13.02;9.48;;;;;;;17.92;71.99;100020.50;4972794;28;96554;-83
2023/09/18 05:15:35;;;;;;;15.57;9.10;;;;;;;17.99;71.68;100013.84;4972556;28;96995;-82
2023/09/18 05:18:00;;;;;;;10.15;8.85;;;;;;;17.92;71.50;100001.91;4971904;28;101116;-80
2023/09/18 05:20:28;;;;;;;14.80;9.30;;;;;;;18.08;71.33;100010.53;4989647;28;101269;-79
2023/09/18 05:22:55;;;;;;;12.27;8.43;;;;;;;18.17;70.94;100001.06;4976344;28;96633;-80
2023/09/18 05:25:22;;;;;;;11.32;8.45;;;;;;;18.37;70.39;99989.88;4976019;28;96874;-79
2023/09/18 05:27:54;;;;;;;14.60;8.80;;;;;;;18.67;69.63;100001.91;4959223;28;97484;-82
2023/09/18 05:30:40;;;;;;;14.10;8.20;;;;;;;18.83;69.06;99994.53;4977397;28;97384;-79
2023/09/18 05:33:08;;;;;;;13.43;8.70;;;;;;;19.11;68.40;99992.47;4975986;28;96672;-79
2023/09/18 05:35:41;;;;;;;15.85;9.15;;;;;;;19.22;67.92;99995.19;4976109;28;96900;-82
2023/09/18 05:38:08;;;;;;;14.32;8.65;;;;;;;19.33;67.37;99987.25;4975494;28;101961;-80
2023/09/18 05:40:34;;;;;;;12.23;8.23;;;;;;;19.51;66.67;99976.16;4975910;28;97397;-79
2023/09/18 05:43:00;;;;;;;16.88;9.25;;;;;;;19.67;66.33;99990.03;4991735;28;96638;-79
2023/09/18 05:45:26;;;;;;;12.20;9.88;;;;;;;19.76;66.18;99991.97;4992152;28;96890;-79
2023/09/18 05:47:53;;;;;;;11.38;7.90;;;;;;;19.85;65.77;99993.94;4975624;28;97458;-82
2023/09/18 05:50:19;;;;;;;10.85;7.63;;;;;;;19.78;66.07;99999.84;4976914;28;97310;-79
2023/09/18 05:52:46;;;;;;;13.57;8.75;;;;;;;19.95;65.17;99991.38;4958859;28;97019;-81
2023/09/18 05:55:12;;;;;;;15.00;8.18;;;;;;;20.10;65.04;99984.88;4975795;28;96916;-81
2023/09/18 05:57:38;;;;;;;11.60;7.65;;;;;;;20.50;64.45;99994.16;4975487;28;97631;-80
2023/09/18 06:00:04;;;;;;;9.48;8.23;;;;;;;20.47;63.37;99957.91;4975471;28;100937;-81
2023/09/18 06:02:37;;;;;;;10.65;8.98;;;;;;;21.10;62.47;99987.47;4972987;28;96531;-83
2023/09/18 06:05:06;;;;;;;18.98;11.27;;;;;;;21.16;61.62;99975.44;4977001;28;96890;-80
2023/09/18 06:07:32;;;;;;;12.00;8.77;;;;;;;21.30;61.51;99983.16;4991255;28;99578;-79
2023/09/18 06:09:58;;;;;;;14.73;10.43;;;;;;;21.76;60.37;99968.56;4975392;28;101463;-79
2023/09/18 06:12:24;;;;;;;11.48;10.27;;;;;;;22.22;58.93;99966.41;4975911;28;96634;-79
2023/09/18 06:14:50;;;;;;;13.35;8.23;;;;;;;22.58;57.57;99967.63;4992235;28;96922;-79
2023/09/18 06:17:16;;;;;;;12.57;11.45;;;;;;;22.93;56.46;99943.03;4958690;28;101261;-80
2023/09/18 06:19:42;;;;;;;14.13;12.68;;;;;;;24.23;53.98;99964.78;4975138;28;100829;-75
2023/09/18 06:22:08;;;;;;;23.13;15.60;;;;;;;25.02;51.68;99963.31;4975479;28;96706;-75
2023/09/18 06:24:36;;;;;;;12.70;8.93;;;;;;;26.31;48.59;99967.06;4992152;28;96628;-77
2023/09/18 06:27:04;;;;;;;24.20;22.08;;;;;;;27.33;46.08;99970.50;4975202;28;97667;-77
2023/09/18 06:29:30;;;;;;;21.77;19.85;;;;;;;28.91;43.03;99941.78;4975056;28;97542;-79
2023/09/18 06:31:56;;;;;;;23.08;21.20;;;;;;;30.65;40.32;99963.13;4974901;28;96638;-87
2023/09/18 06:34:22;;;;;;;22.35;20.42;;;;;;;31.23;38.79;99952.28;4977256;28;96598;-84
2023/09/18 06:36:47;;;;;;;7.90;5.93;;;;;;;32.02;36.82;99943.91;4974613;28;101273;-83
2023/09/18 06:39:13;;;;;;;7.38;6.05;;;;;;;31.01;38.30;99950.59;4974550;28;100777;-83
2023/09/18 06:41:38;;;;;;;10.00;6.63;;;;;;;32.01;37.25;99939.53;4991982;28;96585;-82
2023/09/18 06:44:04;;;;;;;11.05;7.70;;;;;;;33.14;35.06;99944.50;4974927;28;97034;-82
2023/09/18 06:46:30;;;;;;;14.48;10.77;;;;;;;32.93;34.92;99929.19;4958189;28;100963;-84
2023/09/18 06:48:56;;;;;;;10.77;9.82;;;;;;;33.99;33.53;99939.19;4975279;28;97800;-83
2023/09/18 06:51:23;;;;;;;11.15;8.35;;;;;;;35.00;32.41;99938.50;4975352;28;96538;-80
2023/09/18 06:53:48;;;;;;;8.57;6.85;;;;;;;35.90;31.11;99935.41;4974457;28;96924;-82
2023/09/18 06:56:14;;;;;;;10.05;5.75;;;;;;;36.32;30.49;99937.44;4973988;28;101404;-85
2023/09/18 06:58:39;;;;;;;12.38;5.80;;;;;;;36.34;30.35;99938.06;4974979;28;97407;-86
2023/09/18 07:01:09;;;;;;;9.07;5.82;;;;;;;36.51;30.18;99933.63;4976655;28;96577;-88
2023/09/18 07:03:36;;;;;;;8.43;5.40;;;;;;;37.33;28.95;99943.97;4976625;28;96830;-89
2023/09/18 07:06:04;;;;;;;10.13;7.32;;;;;;;37.33;28.78;99935.78;4974866;28;97430;-85
2023/09/18 07:08:30;;;;;;;7.25;6.55;;;;;;;37.92;28.33;99936.56;4974886;28;101303;-89
2023/09/18 07:10:55;;;;;;;9.13;6.63;;;;;;;36.61;29.59;99946.75;4975314;28;96530;-87
2023/09/18 07:13:21;;;;;;;8.13;6.82;;;;;;;35.11;31.87;99934.22;4975474;28;96846;-85
2023/09/18 07:15:47;;;;;;;7.93;6.18;;;;;;;35.40;31.33;99930.00;4958476;28;97480;-87
2023/09/18 07:18:14;;;;;;;6.70;6.10;;;;;;;37.28;29.23;99936.47;4942899;28;100919;-88
2023/09/18 07:20:46;;;;;;;8.63;7.60;;;;;;;37.62;28.45;99912.13;4974398;28;96577;-87
2023/09/18 07:23:11;;;;;;;7.57;6.72;;;;;;;38.96;27.21;99921.13;4974977;28;96806;-87
2023/09/18 07:25:43;;;;;;;7.53;6.60;;;;;;;39.62;26.49;99900.19;4974435;28;97834;-88
2023/09/18 07:28:15;;;;;;;9.52;5.90;;;;;;;40.52;25.46;99903.50;4989601;28;100373;-88
2023/09/18 07:30:41;;;;;;;8.00;6.90;;;;;;;40.30;25.77;99920.06;4975766;28;96675;-87
2023/09/18 07:33:07;;;;;;;8.93;8.10;;;;;;;41.62;24.22;99900.31;4975255;28;96856;-88
2023/09/18 07:35:32;;;;;;;10.10;8.45;;;;;;;41.67;24.32;99896.75;4974260;28;97728;-88
2023/09/18 07:37:58;;;;;;;15.65;12.30;;;;;;;41.22;24.91;99915.44;4974831;28;97486;-87
2023/09/18 07:40:23;;;;;;;12.15;11.07;;;;;;;40.85;25.03;99913.47;4974885;28;96593;-85
2023/09/18 07:42:49;;;;;;;12.90;11.70;;;;;;;41.00;24.98;99907.28;4974990;28;96844;-88
2023/09/18 07:45:14;;;;;;;12.10;10.90;;;;;;;41.65;24.48;99902.53;4973318;28;101076;-86
2023/09/18 07:47:40;;;;;;;10.82;9.77;;;;;;;41.15;24.66;99907.41;4975297;28;97622;-86
2023/09/18 07:50:06;;;;;;;11.02;9.30;;;;;;;42.25;24.08;99906.66;4990857;28;96587;-87
2023/09/18 07:52:32;;;;;;;8.48;6.45;;;;;;;42.03;24.27;99883.97;4981567;28;96794;-86
2023/09/18 07:54:58;;;;;;;18.27;6.97;;;;;;;41.70;24.22;99901.72;4994054;28;97451;-88
2023/09/18 07:57:24;;;;;;;12.95;11.82;;;;;;;41.04;24.94;99899.31;4977235;28;98978;-88
2023/09/18 07:59:50;;;;;;;18.83;17.40;;;;;;;41.26;24.81;99894.56;4977413;28;96604;-88
2023/09/18 08:02:17;;;;;;;12.68;11.32;;;;;;;39.92;26.27;99888.81;4996069;28;96880;-88
2023/09/18 08:04:42;;;;;;;12.85;11.88;;;;;;;41.27;25.39;99898.13;4976539;28;101540;-87
2023/09/18 08:07:08;;;;;;;12.50;11.32;;;;;;;42.08;23.92;99885.94;4960256;28;101553;-84
2023/09/18 08:09:36;;;;;;;14.88;13.68;;;;;;;41.64;24.07;99897.28;4960789;28;96575;-87
2023/09/18 08:12:06;;;;;;;14.75;13.55;;;;;;;41.61;24.17;99891.22;4977731;28;96790;-88
2023/09/18 08:14:36;;;;;;;13.63;12.27;;;;;;;41.43;24.46;99886.13;4976858;28;99348;-85
2023/09/18 08:17:04;;;;;;;15.30;14.00;;;;;;;41.72;24.22;99877.50;4977229;28;100033;-88
2023/09/18 08:19:31;;;;;;;15.10;13.90;;;;;;;42.09;24.33;99868.28;4977067;28;96603;-88
2023/09/18 08:21:57;;;;;;;12.63;11.63;;;;;;;40.59;25.33;99862.06;4960798;28;96861;-77
2023/09/18 08:24:23;;;;;;;13.73;12.57;;;;;;;41.47;24.67;99870.75;4960265;28;97325;-77
2023/09/18 08:26:49;;;;;;;14.40;13.10;;;;;;;41.56;24.20;99860.88;4994653;28;97280;-77
2023/09/18 08:29:15;;;;;;;14.40;13.10;;;;;;;42.28;24.37;99872.19;4977162;28;96509;-76
2023/09/18 08:31:40;;;;;;;13.77;12.60;;;;;;;41.20;24.77;99853.50;4976745;28;96776;-77
2023/09/18 08:34:06;;;;;;;14.73;13.68;;;;;;;41.31;24.94;99856.06;4975818;28;97399;-77
2023/09/18 08:36:32;;;;;;;14.10;13.05;;;;;;;39.62;26.40;99853.50;4994079;28;97963;-77
2023/09/18 08:38:57;;;;;;;15.13;13.68;;;;;;;40.86;25.45;99859.28;4976903;28;96563;-76
2023/09/18 08:41:26;;;;;;;14.75;13.48;;;;;;;38.64;27.53;99845.69;4994324;28;96800;-76
2023/09/18 08:43:53;;;;;;;16.67;15.20;;;;;;;38.37;28.43;99848.19;4976437;28;97567;-76
2023/09/18 08:46:19;;;;;;;15.73;14.00;;;;;;;40.02;26.23;99842.19;4976142;28;97432;-77
2023/09/18 08:48:44;;;;;;;17.23;15.95;;;;;;;39.19;26.85;99835.06;4976587;28;96597;-77
2023/09/18 08:51:10;;;;;;;15.43;14.32;;;;;;;40.01;26.26;99835.06;4976830;28;96902;-76
2023/09/18 08:53:37;;;;;;;14.65;13.32;;;;;;;40.27;25.89;99821.63;4993564;28;97491;-77
2023/09/18 08:56:04;;;;;;;14.65;13.35;;;;;;;40.52;25.81;99823.75;4977924;28;97361;-77
2023/09/18 08:58:33;;;;;;;13.55;12.55;;;;;;;41.04;25.41;99828.59;4979396;28;96569;-76
2023/09/18 09:01:01;;;;;;;13.20;12.30;;;;;;;41.27;25.21;99823.81;4979957;28;96817;-77
2023/09/18 09:03:27;;;;;;;14.57;12.35;;;;;;;42.54;23.96;99828.97;4979821;28;98038;-77
2023/09/18 09:05:52;;;;;;;13.23;11.88;;;;;;;43.29;23.17;99812.63;4997393;28;97322;-76
2023/09/18 09:08:18;;;;;;;10.00;9.10;;;;;;;43.06;23.44;99815.97;4979342;28;96555;-77
2023/09/18 09:10:44;;;;;;;13.40;12.25;;;;;;;42.44;23.66;99804.94;4996053;28;97032;-77
2023/09/18 09:13:09;;;;;;;13.13;11.43;;;;;;;43.68;22.22;99820.22;4979520;28;97567;-77
2023/09/18 09:15:47;;;;;;;11.10;10.20;;;;;;;44.44;22.12;99816.22;4997726;28;97421;-77
2023/09/18 09:18:16;;;;;;;13.95;13.05;;;;;;;43.76;22.70;99810.53;4980363;28;96588;-78
2023/09/18 09:20:53;;;;;;;22.92;20.70;;;;;;;42.14;24.01;99819.50;4980060;28;96870;-77
2023/09/18 09:23:19;;;;;;;12.30;8.13;;;;;;;42.94;23.41;99808.00;4961951;28;101614;-78
2023/09/18 09:25:44;;;;;;;14.55;13.35;;;;;;;41.92;24.22;99794.09;4996029;28;96549;-76
2023/09/18 09:28:10;;;;;;;24.95;22.92;;;;;;;42.92;23.70;99793.66;4963560;28;96653;-78
2023/09/18 09:30:36;;;;;;;16.45;15.15;;;;;;;42.48;23.77;99792.28;4979342;28;96942;-76
2023/09/18 09:33:04;;;;;;;13.48;12.25;;;;;;;42.33;23.75;99777.66;4979124;28;97980;-76
2023/09/18 09:35:35;;;;;;;17.02;15.82;;;;;;;44.07;22.13;99780.78;4979050;28;97277;-76
2023/09/18 09:38:07;;;;;;;18.55;17.25;;;;;;;42.09;23.10;99771.81;4979393;28;96655;-76
2023/09/18 09:40:35;;;;;;;29.02;27.00;;;;;;;40.20;25.33;99761.34;4997449;28;96602;-76
2023/09/18 09:43:00;;;;;;;23.23;21.42;;;;;;;41.97;24.04;99772.06;4996587;28;98112;-76
2023/09/18 09:45:31;;;;;;;22.42;20.67;;;;;;;41.97;23.84;99758.28;4978768;28;99527;-75
2023/09/18 09:47:57;;;;;;;22.77;21.23;;;;;;;40.10;25.23;99768.66;4978611;28;96596;-76
2023/09/18 09:50:25;;;;;;;21.40;19.65;;;;;;;38.24;27.28;99763.53;4979378;28;96922;-75
2023/09/18 09:52:52;;;;;;;21.77;20.38;;;;;;;39.57;26.33;99760.09;4978430;28;97569;-76
2023/09/18 09:55:28;;;;;;;23.90;22.30;;;;;;;38.68;26.69;99766.50;4978982;28;97433;-75
2023/09/18 09:58:01;;;;;;;22.65;18.27;;;;;;;37.48;28.57;99760.16;4979130;28;96523;-75
2023/09/18 10:00:43;;;;;;;19.33;17.73;;;;;;;36.79;29.32;99755.31;4979589;28;96645;-75
2023/09/18 10:03:10;;;;;;;25.70;23.92;;;;;;;35.40;31.53;99762.75;4978743;28;97721;-75
2023/09/18 10:05:38;;;;;;;35.50;33.20;;;;;;;34.37;33.11;99745.88;4995261;28;100836;-76
2023/09/18 10:08:10;;;;;;;12.00;10.93;;;;;;;33.37;34.95;99761.88;4977610;28;96602;-75
2023/09/18 10:10:40;;;;;;;7.63;6.88;;;;;;;32.77;35.63;99763.84;4978533;28;96890;-74
2023/09/18 10:13:09;;;;;;;8.45;7.65;;;;;;;31.60;36.95;99757.72;4978335;28;97674;-75
2023/09/18 10:15:38;;;;;;;12.00;7.53;;;;;;;31.32;36.84;99739.63;4961339;28;101259;-75
2023/09/18 10:18:08;;;;;;;8.80;6.47;;;;;;;30.30;38.99;99756.38;4979098;28;96622;-75
2023/09/18 10:20:42;;;;;;;8.60;7.63;;;;;;;30.56;38.79;99753.06;4978998;28;96555;-74
2023/09/18 10:23:17;;;;;;;14.05;7.85;;;;;;;29.83;39.58;99754.19;4978766;28;98150;-74
2023/09/18 10:25:43;;;;;;;12.57;7.93;;;;;;;29.78;39.87;99752.88;4962181;28;101480;-76
2023/09/18 10:28:12;;;;;;;13.20;7.45;;;;;;;29.85;40.03;99746.75;4978855;28;96574;-76
2023/09/18 10:30:37;;;;;;;13.88;7.22;;;;;;;30.03;39.83;99746.31;4962674;28;96830;-76
2023/09/18 10:33:03;;;;;;;9.63;7.22;;;;;;;29.80;40.23;99754.59;4995962;28;97521;-75
2023/09/18 10:35:29;;;;;;;7.63;6.97;;;;;;;29.67;40.59;99749.84;4978389;28;97922;-75
2023/09/18 10:37:55;;;;;;;8.68;7.15;;;;;;;29.87;40.40;99748.19;4961345;28;96544;-75
2023/09/18 10:40:22;;;;;;;8.55;7.78;;;;;;;29.46;40.81;99727.09;4962095;28;96816;-75
2023/09/18 10:42:48;;;;;;;9.98;8.05;;;;;;;29.86;40.66;99751.13;4978074;28;97539;-75
2023/09/18 10:45:15;;;;;;;9.73;7.13;;;;;;;29.68;40.35;99735.31;4961560;28;97113;-73
2023/09/18 10:47:46;;;;;;;8.43;7.63;;;;;;;29.28;40.96;99753.69;4961974;28;96818;-72
2023/09/18 10:50:12;;;;;;;12.80;7.88;;;;;;;29.04;41.43;99757.50;4977987;28;97030;-72
2023/09/18 10:52:44;;;;;;;9.95;8.32;;;;;;;28.97;41.96;99749.25;4990818;28;98059;-72
2023/09/18 10:55:13;;;;;;;16.67;7.75;;;;;;;28.84;42.22;99746.38;4974828;28;97373;-72
2023/09/18 10:57:56;;;;;;;14.30;9.05;;;;;;;29.01;42.49;99744.34;4974946;28;96738;-73
2023/09/18 11:00:24;;;;;;;13.23;11.77;;;;;;;28.93;42.02;99745.25;4974557;28;96631;-71
2023/09/18 11:03:14;;;;;;;11.95;10.77;;;;;;;28.76;42.43;99741.06;4973730;28;97644;-72
2023/09/18 11:05:39;;;;;;;12.52;11.30;;;;;;;28.64;42.29;99711.78;4974076;28;97360;-72
2023/09/18 11:08:23;;;;;;;14.65;11.55;;;;;;;28.74;42.89;99721.50;4974187;28;96667;-71
2023/09/18 11:11:21;;;;;;;15.20;13.80;;;;;;;28.69;42.82;99730.16;4976254;28;96882;-70
2023/09/18 11:13:49;;;;;;;18.63;16.13;;;;;;;28.70;42.82;99704.81;4973733;28;97521;-70
2023/09/18 11:16:24;;;;;;;12.93;11.02;;;;;;;28.85;42.92;99726.44;4973359;28;98042;-71
2023/09/18 11:19:10;;;;;;;14.40;13.10;;;;;;;28.76;42.87;99709.47;4990677;28;96619;-70